sensor_id;sensor_type;location;lat;lon;timestamp;pressure;altitude;pressure_sealevel;temperature;humidity
11672;BME280;5892;43.412;24.612;2022-11-15T00:00:22;100838.63;;;8.95;100.00
11672;BME280;5892;43.412;24.612;2022-11-15T00:02:49;100833.19;;;8.95;100.00
11672;BME280;5892;43.412;24.612;2022-11-15T00:05:16;100755.97;;;8.45;100.00
11672;BME280;5892;43.412;24.612;2022-11-15T00:07:43;100838.38;;;8.91;100.00
11672;BME280;5892;43.412;24.612;2022-11-15T00:10:10;100829.31;;;8.96;100.00
11672;BME280;5892;43.412;24.612;2022-11-15T00:12:37;100837.00;;;8.93;100.00
11672;BME280;5892;43.412;24.612;2022-11-15T00:15:07;100830.13;;;8.96;100.00
11672;BME280;5892;43.412;24.612;2022-11-15T00:28:41;100796.50;;;8.96;100.00
11672;BME280;5892;43.412;24.612;2022-11-15T00:31:12;100781.06;;;8.81;100.00
11672;BME280;5892;43.412;24.612;2022-11-15T00:33:39;100819.47;;;9.00;100.00
11672;BME280;5892;43.412;24.612;2022-11-15T00:36:08;100815.28;;;9.07;100.00
11672;BME280;5892;43.412;24.612;2022-11-15T00:38:37;100803.88;;;9.00;100.00
11672;BME280;5892;43.412;24.612;2022-11-15T00:41:05;100806.56;;;9.05;100.00
11672;BME280;5892;43.412;24.612;2022-11-15T00:43:33;100805.75;;;9.05;100.00
11672;BME280;5892;43.412;24.612;2022-11-15T00:46:00;100782.63;;;8.92;100.00
11672;BME280;5892;43.412;24.612;2022-11-15T00:48:29;100775.00;;;8.89;100.00
11672;BME280;5892;43.412;24.612;2022-11-15T00:50:57;100784.56;;;8.86;100.00
11672;BME280;5892;43.412;24.612;2022-11-15T00:53:24;100764.16;;;8.79;100.00
11672;BME280;5892;43.412;24.612;2022-11-15T00:55:51;100737.59;;;8.56;100.00
11672;BME280;5892;43.412;24.612;2022-11-15T00:58:18;100790.59;;;8.88;100.00
11672;BME280;5892;43.412;24.612;2022-11-15T01:00:44;100779.88;;;8.92;100.00
11672;BME280;5892;43.412;24.612;2022-11-15T01:03:11;100766.69;;;8.70;100.00
11672;BME280;5892;43.412;24.612;2022-11-15T01:38:30;100764.25;;;8.69;100.00
11672;BME280;5892;43.412;24.612;2022-11-15T01:40:57;100745.69;;;8.66;100.00
11672;BME280;5892;43.412;24.612;2022-11-15T01:43:26;100690.56;;;8.30;100.00
11672;BME280;5892;43.412;24.612;2022-11-15T01:45:56;100763.59;;;8.82;100.00
11672;BME280;5892;43.412;24.612;2022-11-15T01:48:30;100718.25;;;8.52;100.00
11672;BME280;5892;43.412;24.612;2022-11-15T01:50:59;100757.41;;;8.71;100.00
11672;BME280;5892;43.412;24.612;2022-11-15T01:53:29;100744.31;;;8.68;100.00
11672;BME280;5892;43.412;24.612;2022-11-15T01:56:02;100726.44;;;8.52;100.00
11672;BME280;5892;43.412;24.612;2022-11-15T01:58:31;100734.59;;;8.57;100.00
11672;BME280;5892;43.412;24.612;2022-11-15T02:00:58;100711.66;;;8.53;100.00
11672;BME280;5892;43.412;24.612;2022-11-15T02:03:33;100711.97;;;8.52;100.00
11672;BME280;5892;43.412;24.612;2022-11-15T02:06:03;100707.53;;;8.56;100.00
11672;BME280;5892;43.412;24.612;2022-11-15T02:08:31;100698.31;;;8.52;100.00
11672;BME280;5892;43.412;24.612;2022-11-15T02:10:59;100753.47;;;8.82;100.00
11672;BME280;5892;43.412;24.612;2022-11-15T02:13:26;100724.16;;;8.59;100.00
11672;BME280;5892;43.412;24.612;2022-11-15T02:16:00;100758.16;;;8.77;100.00
11672;BME280;5892;43.412;24.612;2022-11-15T02:18:35;100753.25;;;8.79;100.00
11672;BME280;5892;43.412;24.612;2022-11-15T02:21:20;100720.84;;;8.67;100.00
11672;BME280;5892;43.412;24.612;2022-11-15T02:32:49;100693.66;;;8.52;100.00
11672;BME280;5892;43.412;24.612;2022-11-15T02:35:27;100689.94;;;8.38;100.00
11672;BME280;5892;43.412;24.612;2022-11-15T02:38:01;100745.00;;;8.84;100.00
11672;BME280;5892;43.412;24.612;2022-11-15T02:40:40;100729.50;;;8.74;100.00
11672;BME280;5892;43.412;24.612;2022-11-15T02:43:13;100726.53;;;8.71;100.00
11672;BME280;5892;43.412;24.612;2022-11-15T02:46:06;100734.63;;;8.81;100.00
11672;BME280;5892;43.412;24.612;2022-11-15T02:48:36;100737.34;;;8.81;100.00
11672;BME280;5892;43.412;24.612;2022-11-15T02:51:05;100704.94;;;8.69;100.00
11672;BME280;5892;43.412;24.612;2022-11-15T03:04:13;100732.28;;;8.69;100.00
11672;BME280;5892;43.412;24.612;2022-11-15T03:06:52;100752.47;;;8.73;100.00
11672;BME280;5892;43.412;24.612;2022-11-15T03:09:27;100737.19;;;8.72;100.00
11672;BME280;5892;43.412;24.612;2022-11-15T03:11:59;100742.91;;;8.71;100.00
11672;BME280;5892;43.412;24.612;2022-11-15T03:26:01;100733.84;;;8.75;100.00
11672;BME280;5892;43.412;24.612;2022-11-15T03:28:36;100731.06;;;8.80;100.00
11672;BME280;5892;43.412;24.612;2022-11-15T03:31:04;100729.50;;;8.74;100.00
11672;BME280;5892;43.412;24.612;2022-11-15T03:37:04;100662.50;;;8.53;100.00
11672;BME280;5892;43.412;24.612;2022-11-15T03:39:32;100720.69;;;8.82;100.00
11672;BME280;5892;43.412;24.612;2022-11-15T03:42:09;100718.44;;;8.89;100.00
11672;BME280;5892;43.412;24.612;2022-11-15T03:44:45;100706.19;;;8.82;100.00
11672;BME280;5892;43.412;24.612;2022-11-15T03:47:17;100687.19;;;8.72;100.00
11672;BME280;5892;43.412;24.612;2022-11-15T03:49:50;100703.47;;;8.82;100.00
11672;BME280;5892;43.412;24.612;2022-11-15T03:52:18;100667.63;;;8.60;100.00
11672;BME280;5892;43.412;24.612;2022-11-15T03:54:50;100691.50;;;8.78;100.00
11672;BME280;5892;43.412;24.612;2022-11-15T03:57:18;100638.25;;;8.46;100.00
11672;BME280;5892;43.412;24.612;2022-11-15T03:59:45;100629.81;;;8.43;100.00
11672;BME280;5892;43.412;24.612;2022-11-15T04:02:12;100678.44;;;8.70;100.00
11672;BME280;5892;43.412;24.612;2022-11-15T04:04:39;100694.97;;;8.83;100.00
11672;BME280;5892;43.412;24.612;2022-11-15T04:07:06;100684.00;;;8.88;100.00
11672;BME280;5892;43.412;24.612;2022-11-15T04:09:33;100691.72;;;8.81;100.00
11672;BME280;5892;43.412;24.612;2022-11-15T04:22:42;100682.53;;;8.72;100.00
11672;BME280;5892;43.412;24.612;2022-11-15T04:25:32;100676.03;;;8.68;100.00
11672;BME280;5892;43.412;24.612;2022-11-15T04:27:59;100684.97;;;8.74;100.00
11672;BME280;5892;43.412;24.612;2022-11-15T04:30:26;100672.16;;;8.69;100.00
11672;BME280;5892;43.412;24.612;2022-11-15T04:32:53;100672.75;;;8.66;100.00
11672;BME280;5892;43.412;24.612;2022-11-15T04:35:20;100668.38;;;8.65;100.00
11672;BME280;5892;43.412;24.612;2022-11-15T04:37:48;100685.78;;;8.74;100.00
11672;BME280;5892;43.412;24.612;2022-11-15T04:40:15;100650.06;;;8.66;100.00
11672;BME280;5892;43.412;24.612;2022-11-15T04:42:42;100680.34;;;8.69;100.00
11672;BME280;5892;43.412;24.612;2022-11-15T04:45:09;100676.06;;;8.63;100.00
11672;BME280;5892;43.412;24.612;2022-11-15T04:47:36;100673.34;;;8.63;100.00
11672;BME280;5892;43.412;24.612;2022-11-15T04:50:04;100668.38;;;8.65;100.00
11672;BME280;5892;43.412;24.612;2022-11-15T04:52:31;100668.38;;;8.65;100.00
11672;BME280;5892;43.412;24.612;2022-11-15T04:54:59;100670.56;;;8.68;100.00
11672;BME280;5892;43.412;24.612;2022-11-15T04:57:26;100671.06;;;8.70;100.00
11672;BME280;5892;43.412;24.612;2022-11-15T04:59:53;100671.41;;;8.64;100.00
11672;BME280;5892;43.412;24.612;2022-11-15T05:02:20;100663.75;;;8.66;100.00
11672;BME280;5892;43.412;24.612;2022-11-15T05:04:47;100697.09;;;8.63;100.00
11672;BME280;5892;43.412;24.612;2022-11-15T05:07:13;100674.94;;;8.64;100.00
11672;BME280;5892;43.412;24.612;2022-11-15T05:10:14;100533.34;;;7.66;100.00
11672;BME280;5892;43.412;24.612;2022-11-15T05:12:41;100642.53;;;8.58;100.00
11672;BME280;5892;43.412;24.612;2022-11-15T05:15:09;100663.03;;;8.55;100.00
11672;BME280;5892;43.412;24.612;2022-11-15T05:17:36;100597.31;;;8.13;100.00
11672;BME280;5892;43.412;24.612;2022-11-15T05:20:03;100669.47;;;8.64;100.00
11672;BME280;5892;43.412;24.612;2022-11-15T05:22:31;100656.75;;;8.55;100.00
11672;BME280;5892;43.412;24.612;2022-11-15T05:24:58;100662.06;;;8.70;100.00
11672;BME280;5892;43.412;24.612;2022-11-15T05:27:26;100644.72;;;8.56;100.00
11672;BME280;5892;43.412;24.612;2022-11-15T05:29:53;100646.91;;;8.54;100.00
11672;BME280;5892;43.412;24.612;2022-11-15T05:32:20;100664.78;;;8.70;100.00
11672;BME280;5892;43.412;24.612;2022-11-15T05:34:47;100638.25;;;8.46;100.00
11672;BME280;5892;43.412;24.612;2022-11-15T05:37:14;100666.69;;;8.69;100.00
11672;BME280;5892;43.412;24.612;2022-11-15T05:39:43;100662.09;;;8.65;100.00
11672;BME280;5892;43.412;24.612;2022-11-15T05:42:11;100669.16;;;8.71;100.00
11672;BME280;5892;43.412;24.612;2022-11-15T05:44:43;100655.66;;;8.56;100.00
11672;BME280;5892;43.412;24.612;2022-11-15T05:47:13;100669.44;;;8.69;100.00
11672;BME280;5892;43.412;24.612;2022-11-15T05:49:43;100671.13;;;8.65;100.00
11672;BME280;5892;43.412;24.612;2022-11-15T05:52:13;100619.47;;;8.40;100.00
11672;BME280;5892;43.412;24.612;2022-11-15T05:54:41;100685.22;;;8.77;100.00
11672;BME280;5892;43.412;24.612;2022-11-15T05:57:08;100688.81;;;8.73;100.00
11672;BME280;5892;43.412;24.612;2022-11-15T05:59:36;100683.84;;;8.75;100.00
11672;BME280;5892;43.412;24.612;2022-11-15T06:02:05;100684.38;;;8.77;100.00
11672;BME280;5892;43.412;24.612;2022-11-15T06:04:31;100675.19;;;8.68;100.00
11672;BME280;5892;43.412;24.612;2022-11-15T06:06:59;100675.44;;;8.71;100.00
11672;BME280;5892;43.412;24.612;2022-11-15T06:09:26;100671.50;;;8.82;100.00
11672;BME280;5892;43.412;24.612;2022-11-15T06:11:52;100673.41;;;8.82;100.00
11672;BME280;5892;43.412;24.612;2022-11-15T06:14:20;100674.63;;;8.71;100.00
11672;BME280;5892;43.412;24.612;2022-11-15T06:16:47;100664.72;;;8.75;100.00
11672;BME280;5892;43.412;24.612;2022-11-15T06:19:15;100652.63;;;8.57;100.00
11672;BME280;5892;43.412;24.612;2022-11-15T06:21:42;100713.03;;;8.79;100.00
11672;BME280;5892;43.412;24.612;2022-11-15T06:24:09;100681.53;;;8.87;100.00
11672;BME280;5892;43.412;24.612;2022-11-15T06:26:36;100685.09;;;8.87;100.00
11672;BME280;5892;43.412;24.612;2022-11-15T06:29:03;100677.22;;;8.81;100.00
11672;BME280;5892;43.412;24.612;2022-11-15T06:31:31;100676.31;;;8.90;100.00
11672;BME280;5892;43.412;24.612;2022-11-15T06:33:58;100670.34;;;8.88;100.00
11672;BME280;5892;43.412;24.612;2022-11-15T06:36:26;100668.69;;;8.87;100.00
11672;BME280;5892;43.412;24.612;2022-11-15T06:38:53;100665.69;;;8.89;100.00
11672;BME280;5892;43.412;24.612;2022-11-15T06:41:20;100677.59;;;8.98;100.00
11672;BME280;5892;43.412;24.612;2022-11-15T06:43:47;100676.84;;;8.92;100.00
11672;BME280;5892;43.412;24.612;2022-11-15T06:46:14;100654.06;;;8.78;100.00
11672;BME280;5892;43.412;24.612;2022-11-15T06:48:41;100657.00;;;8.82;100.00
11672;BME280;5892;43.412;24.612;2022-11-15T06:51:08;100675.69;;;8.99;100.00
11672;BME280;5892;43.412;24.612;2022-11-15T06:53:36;100674.53;;;9.05;100.00
11672;BME280;5892;43.412;24.612;2022-11-15T06:56:05;100663.00;;;9.08;100.00
11672;BME280;5892;43.412;24.612;2022-11-15T06:58:32;100660.19;;;9.13;100.00
11672;BME280;5892;43.412;24.612;2022-11-15T07:01:01;100664.34;;;9.10;100.00
11672;BME280;5892;43.412;24.612;2022-11-15T07:03:28;100640.91;;;8.80;100.00
11672;BME280;5892;43.412;24.612;2022-11-15T07:05:56;100663.81;;;9.08;100.00
11672;BME280;5892;43.412;24.612;2022-11-15T07:08:23;100610.63;;;8.77;100.00
11672;BME280;5892;43.412;24.612;2022-11-15T07:10:52;100662.13;;;9.12;100.00
11672;BME280;5892;43.412;24.612;2022-11-15T07:13:19;100673.59;;;9.14;100.00
11672;BME280;5892;43.412;24.612;2022-11-15T07:15:46;100604.28;;;8.81;100.00
11672;BME280;5892;43.412;24.612;2022-11-15T07:18:13;100659.63;;;9.16;100.00
11672;BME280;5892;43.412;24.612;2022-11-15T07:20:40;100660.66;;;9.20;100.00
11672;BME280;5892;43.412;24.612;2022-11-15T07:23:07;100658.00;;;9.15;100.00
11672;BME280;5892;43.412;24.612;2022-11-15T07:28:22;100611.19;;;8.98;100.00
11672;BME280;5892;43.412;24.612;2022-11-15T07:30:49;100649.25;;;9.37;100.00
11672;BME280;5892;43.412;24.612;2022-11-15T07:33:16;100657.13;;;9.38;100.00
11672;BME280;5892;43.412;24.612;2022-11-15T07:35:42;100654.09;;;9.40;100.00
11672;BME280;5892;43.412;24.612;2022-11-15T07:38:11;100572.78;;;8.89;100.00
11672;BME280;5892;43.412;24.612;2022-11-15T07:40:40;100680.50;;;9.49;100.00
11672;BME280;5892;43.412;24.612;2022-11-15T07:43:08;100652.19;;;9.40;100.00
11672;BME280;5892;43.412;24.612;2022-11-15T07:45:42;100654.56;;;9.47;100.00
11672;BME280;5892;43.412;24.612;2022-11-15T07:48:09;100624.59;;;9.18;100.00
11672;BME280;5892;43.412;24.612;2022-11-15T07:50:36;100658.41;;;9.46;100.00
11672;BME280;5892;43.412;24.612;2022-11-15T07:53:03;100657.00;;;9.48;100.00
11672;BME280;5892;43.412;24.612;2022-11-15T07:55:30;100648.88;;;9.62;100.00
11672;BME280;5892;43.412;24.612;2022-11-15T07:58:00;100633.03;;;9.59;100.00
11672;BME280;5892;43.412;24.612;2022-11-15T08:03:51;100643.75;;;9.74;100.00
11672;BME280;5892;43.412;24.612;2022-11-15T08:06:18;100647.91;;;9.71;100.00
11672;BME280;5892;43.412;24.612;2022-11-15T08:08:46;100632.81;;;9.74;100.00
11672;BME280;5892;43.412;24.612;2022-11-15T08:11:13;100629.13;;;9.65;100.00
11672;BME280;5892;43.412;24.612;2022-11-15T08:13:40;100583.00;;;9.40;100.00
11672;BME280;5892;43.412;24.612;2022-11-15T08:16:08;100615.06;;;9.53;100.00
11672;BME280;5892;43.412;24.612;2022-11-15T08:18:35;100646.88;;;9.67;100.00
11672;BME280;5892;43.412;24.612;2022-11-15T08:21:04;100630.97;;;9.69;100.00
11672;BME280;5892;43.412;24.612;2022-11-15T08:23:31;100636.16;;;9.71;100.00
11672;BME280;5892;43.412;24.612;2022-11-15T08:26:01;100583.22;;;9.43;100.00
11672;BME280;5892;43.412;24.612;2022-11-15T08:28:29;100635.41;;;9.65;100.00
11672;BME280;5892;43.412;24.612;2022-11-15T08:30:56;100639.84;;;9.61;100.00
11672;BME280;5892;43.412;24.612;2022-11-15T08:33:23;100627.28;;;9.60;100.00
11672;BME280;5892;43.412;24.612;2022-11-15T08:35:51;100603.09;;;9.49;100.00
11672;BME280;5892;43.412;24.612;2022-11-15T08:38:19;100627.72;;;9.67;100.00
11672;BME280;5892;43.412;24.612;2022-11-15T08:40:46;100627.72;;;9.67;100.00
11672;BME280;5892;43.412;24.612;2022-11-15T08:43:13;100634.44;;;9.75;100.00
11672;BME280;5892;43.412;24.612;2022-11-15T08:45:40;100541.69;;;9.22;100.00
11672;BME280;5892;43.412;24.612;2022-11-15T08:48:07;100541.03;;;9.30;100.00
11672;BME280;5892;43.412;24.612;2022-11-15T08:50:48;100616.19;;;9.70;100.00
11672;BME280;5892;43.412;24.612;2022-11-15T08:53:15;100618.97;;;9.84;100.00
11672;BME280;5892;43.412;24.612;2022-11-15T08:55:43;100601.59;;;9.75;100.00
11672;BME280;5892;43.412;24.612;2022-11-15T08:58:10;100566.44;;;9.50;100.00
11672;BME280;5892;43.412;24.612;2022-11-15T09:00:37;100614.84;;;9.87;100.00
11672;BME280;5892;43.412;24.612;2022-11-15T09:03:04;100601.28;;;9.95;100.00
11672;BME280;5892;43.412;24.612;2022-11-15T09:05:31;100586.03;;;9.89;100.00
11672;BME280;5892;43.412;24.612;2022-11-15T09:07:58;100596.03;;;9.99;100.00
11672;BME280;5892;43.412;24.612;2022-11-15T09:10:25;100565.53;;;9.73;100.00
11672;BME280;5892;43.412;24.612;2022-11-15T09:12:56;100562.06;;;9.67;100.00
11672;BME280;5892;43.412;24.612;2022-11-15T09:15:23;100500.94;;;9.40;100.00
11672;BME280;5892;43.412;24.612;2022-11-15T09:17:50;100586.00;;;10.08;100.00
11672;BME280;5892;43.412;24.612;2022-11-15T09:20:17;100574.81;;;10.23;100.00
11672;BME280;5892;43.412;24.612;2022-11-15T09:22:44;100576.06;;;10.31;100.00
11672;BME280;5892;43.412;24.612;2022-11-15T09:25:10;100569.03;;;10.25;100.00
11672;BME280;5892;43.412;24.612;2022-11-15T09:27:37;100561.22;;;10.32;100.00
11672;BME280;5892;43.412;24.612;2022-11-15T09:30:07;100568.72;;;10.26;100.00
11672;BME280;5892;43.412;24.612;2022-11-15T09:32:34;100576.94;;;10.26;100.00
11672;BME280;5892;43.412;24.612;2022-11-15T09:35:01;100498.03;;;9.82;100.00
11672;BME280;5892;43.412;24.612;2022-11-15T09:37:28;100543.09;;;10.03;100.00
11672;BME280;5892;43.412;24.612;2022-11-15T09:39:55;100559.78;;;10.20;100.00
11672;BME280;5892;43.412;24.612;2022-11-15T09:42:40;100564.00;;;10.13;100.00
11672;BME280;5892;43.412;24.612;2022-11-15T09:45:18;100556.25;;;10.20;100.00
11672;BME280;5892;43.412;24.612;2022-11-15T09:48:00;100528.50;;;10.08;100.00
11672;BME280;5892;43.412;24.612;2022-11-15T09:50:34;100527.25;;;10.00;100.00
11672;BME280;5892;43.412;24.612;2022-11-15T09:53:03;100522.94;;;10.13;100.00
11672;BME280;5892;43.412;24.612;2022-11-15T09:55:44;100545.22;;;10.25;100.00
11672;BME280;5892;43.412;24.612;2022-11-15T09:58:21;100541.56;;;10.30;100.00
11672;BME280;5892;43.412;24.612;2022-11-15T10:00:57;100541.94;;;10.37;100.00
11672;BME280;5892;43.412;24.612;2022-11-15T10:03:28;100483.16;;;9.88;100.00
11672;BME280;5892;43.412;24.612;2022-11-15T10:06:19;100528.25;;;10.37;100.00
11672;BME280;5892;43.412;24.612;2022-11-15T10:08:55;100492.53;;;10.14;100.00
11672;BME280;5892;43.412;24.612;2022-11-15T10:11:26;100513.56;;;10.46;100.00
11672;BME280;5892;43.412;24.612;2022-11-15T10:17:38;100518.94;;;10.51;100.00
11672;BME280;5892;43.412;24.612;2022-11-15T10:20:18;100508.09;;;10.46;100.00
11672;BME280;5892;43.412;24.612;2022-11-15T10:22:48;100508.50;;;10.40;100.00
11672;BME280;5892;43.412;24.612;2022-11-15T10:25:22;100510.50;;;10.34;100.00
11672;BME280;5892;43.412;24.612;2022-11-15T10:27:57;100493.88;;;10.31;100.00
11672;BME280;5892;43.412;24.612;2022-11-15T10:30:31;100494.06;;;10.34;100.00
11672;BME280;5892;43.412;24.612;2022-11-15T10:33:10;100442.19;;;9.97;100.00
11672;BME280;5892;43.412;24.612;2022-11-15T10:35:38;100466.50;;;10.31;100.00
11672;BME280;5892;43.412;24.612;2022-11-15T10:38:06;100488.22;;;10.41;100.00
11672;BME280;5892;43.412;24.612;2022-11-15T10:40:45;100400.13;;;9.93;100.00
11672;BME280;5892;43.412;24.612;2022-11-15T10:43:17;100477.97;;;10.46;100.00
11672;BME280;5892;43.412;24.612;2022-11-15T10:45:45;100477.97;;;10.46;100.00
11672;BME280;5892;43.412;24.612;2022-11-15T10:48:24;100429.84;;;10.13;100.00
11672;BME280;5892;43.412;24.612;2022-11-15T10:50:52;100481.59;;;10.55;100.00
11672;BME280;5892;43.412;24.612;2022-11-15T10:53:24;100473.75;;;10.62;100.00
11672;BME280;5892;43.412;24.612;2022-11-15T10:55:54;100474.78;;;10.67;100.00
11672;BME280;5892;43.412;24.612;2022-11-15T10:58:32;100452.03;;;10.66;100.00
11672;BME280;5892;43.412;24.612;2022-11-15T11:01:14;100460.97;;;10.72;100.00
11672;BME280;5892;43.412;24.612;2022-11-15T11:03:44;100448.78;;;10.64;100.00
11672;BME280;5892;43.412;24.612;2022-11-15T11:06:13;100445.13;;;10.69;100.00
11672;BME280;5892;43.412;24.612;2022-11-15T11:08:53;100404.69;;;10.38;100.00
11672;BME280;5892;43.412;24.612;2022-11-15T11:11:24;100419.06;;;10.57;100.00
11672;BME280;5892;43.412;24.612;2022-11-15T11:13:52;100367.25;;;10.34;100.00
11672;BME280;5892;43.412;24.612;2022-11-15T11:16:35;100383.94;;;10.59;100.00
11672;BME280;5892;43.412;24.612;2022-11-15T11:19:28;100427.72;;;10.87;100.00
11672;BME280;5892;43.412;24.612;2022-11-15T11:22:06;100437.53;;;11.01;100.00
11672;BME280;5892;43.412;24.612;2022-11-15T11:24:42;100423.50;;;11.03;100.00
11672;BME280;5892;43.412;24.612;2022-11-15T11:27:36;100425.63;;;11.06;100.00
11672;BME280;5892;43.412;24.612;2022-11-15T11:30:18;100306.53;;;10.18;100.00
11672;BME280;5892;43.412;24.612;2022-11-15T11:33:20;100418.03;;;11.03;100.00
11672;BME280;5892;43.412;24.612;2022-11-15T11:35:57;100417.88;;;10.86;100.00
11672;BME280;5892;43.412;24.612;2022-11-15T11:38:37;100415.44;;;10.84;100.00
11672;BME280;5892;43.412;24.612;2022-11-15T11:41:12;100410.53;;;10.95;100.00
11672;BME280;5892;43.412;24.612;2022-11-15T11:43:48;100424.88;;;10.92;100.00
11672;BME280;5892;43.412;24.612;2022-11-15T11:46:34;100399.81;;;10.85;100.00
11672;BME280;5892;43.412;24.612;2022-11-15T11:49:09;100408.91;;;10.94;100.00
11672;BME280;5892;43.412;24.612;2022-11-15T11:51:40;100394.84;;;10.87;100.00
11672;BME280;5892;43.412;24.612;2022-11-15T11:54:13;100380.69;;;10.57;100.00
11672;BME280;5892;43.412;24.612;2022-11-15T11:56:43;100390.88;;;10.43;100.00
11672;BME280;5892;43.412;24.612;2022-11-15T11:59:37;100329.56;;;10.17;100.00
11672;BME280;5892;43.412;24.612;2022-11-15T12:02:12;100385.19;;;10.53;100.00
11672;BME280;5892;43.412;24.612;2022-11-15T12:04:44;100317.69;;;10.08;100.00
11672;BME280;5892;43.412;24.612;2022-11-15T12:07:18;100326.28;;;10.29;100.00
11672;BME280;5892;43.412;24.612;2022-11-15T12:10:14;100378.88;;;10.67;100.00
11672;BME280;5892;43.412;24.612;2022-11-15T12:12:50;100376.53;;;10.60;100.00
11672;BME280;5892;43.412;24.612;2022-11-15T12:15:22;100372.28;;;10.68;100.00
11672;BME280;5892;43.412;24.612;2022-11-15T12:17:50;100358.16;;;10.60;100.00
11672;BME280;5892;43.412;24.612;2022-11-15T12:20:19;100328.38;;;10.45;100.00
11672;BME280;5892;43.412;24.612;2022-11-15T12:22:53;100362.31;;;10.72;100.00
11672;BME280;5892;43.412;24.612;2022-11-15T12:25:25;100297.09;;;10.24;100.00
11672;BME280;5892;43.412;24.612;2022-11-15T12:27:57;100359.28;;;10.59;100.00
11672;BME280;5892;43.412;24.612;2022-11-15T12:30:38;100276.56;;;9.86;100.00
11672;BME280;5892;43.412;24.612;2022-11-15T12:33:30;100336.09;;;10.43;100.00
11672;BME280;5892;43.412;24.612;2022-11-15T12:35:59;100295.28;;;10.19;100.00
11672;BME280;5892;43.412;24.612;2022-11-15T12:38:56;100350.19;;;10.50;100.00
11672;BME280;5892;43.412;24.612;2022-11-15T12:41:25;100349.78;;;10.43;100.00
11672;BME280;5892;43.412;24.612;2022-11-15T12:43:53;100338.53;;;10.45;100.00
11672;BME280;5892;43.412;24.612;2022-11-15T12:47:00;100334.47;;;10.42;100.00
11672;BME280;5892;43.412;24.612;2022-11-15T12:49:45;100334.97;;;10.44;100.00
11672;BME280;5892;43.412;24.612;2022-11-15T12:52:12;100303.28;;;10.30;100.00
11672;BME280;5892;43.412;24.612;2022-11-15T12:55:02;100256.75;;;10.02;100.00
11672;BME280;5892;43.412;24.612;2022-11-15T12:57:37;100338.94;;;10.52;100.00
11672;BME280;5892;43.412;24.612;2022-11-15T13:03:22;100329.91;;;10.38;100.00
11672;BME280;5892;43.412;24.612;2022-11-15T13:08:58;100329.25;;;10.54;100.00
11672;BME280;5892;43.412;24.612;2022-11-15T13:11:49;100327.03;;;10.56;100.00
11672;BME280;5892;43.412;24.612;2022-11-15T13:14:45;100329.44;;;10.58;100.00
11672;BME280;5892;43.412;24.612;2022-11-15T13:17:33;100323.47;;;10.56;100.00
11672;BME280;5892;43.412;24.612;2022-11-15T13:20:18;100321.34;;;10.53;100.00
11672;BME280;5892;43.412;24.612;2022-11-15T13:22:47;100247.44;;;10.03;100.00
11672;BME280;5892;43.412;24.612;2022-11-15T13:25:59;100320.34;;;10.49;100.00
11672;BME280;5892;43.412;24.612;2022-11-15T13:28:33;100317.78;;;10.52;100.00
11672;BME280;5892;43.412;24.612;2022-11-15T13:31:13;100288.66;;;10.34;100.00
11672;BME280;5892;43.412;24.612;2022-11-15T13:33:45;100309.69;;;10.47;100.00
11672;BME280;5892;43.412;24.612;2022-11-15T13:36:14;100308.81;;;10.38;100.00
11672;BME280;5892;43.412;24.612;2022-11-15T13:38:42;100288.13;;;10.32;100.00
11672;BME280;5892;43.412;24.612;2022-11-15T13:41:19;100292.69;;;10.37;100.00
11672;BME280;5892;43.412;24.612;2022-11-15T13:43:48;100303.91;;;10.49;100.00
11672;BME280;5892;43.412;24.612;2022-11-15T13:46:18;100300.88;;;10.50;100.00
11672;BME280;5892;43.412;24.612;2022-11-15T13:48:47;100295.50;;;10.45;100.00
11672;BME280;5892;43.412;24.612;2022-11-15T13:51:19;100279.09;;;10.32;100.00
11672;BME280;5892;43.412;24.612;2022-11-15T13:53:52;100233.22;;;10.15;100.00
11672;BME280;5892;43.412;24.612;2022-11-15T13:56:22;100253.59;;;10.23;100.00
11672;BME280;5892;43.412;24.612;2022-11-15T13:58:51;100205.09;;;9.87;100.00
11672;BME280;5892;43.412;24.612;2022-11-15T14:01:21;100281.03;;;10.31;100.00
11672;BME280;5892;43.412;24.612;2022-11-15T14:03:57;100249.63;;;10.15;100.00
11672;BME280;5892;43.412;24.612;2022-11-15T14:06:25;100281.59;;;10.42;100.00
11672;BME280;5892;43.412;24.612;2022-11-15T14:09:18;100285.78;;;10.39;100.00
11672;BME280;5892;43.412;24.612;2022-11-15T14:11:52;100277.69;;;10.34;100.00
11672;BME280;5892;43.412;24.612;2022-11-15T14:14:22;100223.09;;;10.02;100.00
11672;BME280;5892;43.412;24.612;2022-11-15T14:16:50;100283.47;;;10.33;100.00
11672;BME280;5892;43.412;24.612;2022-11-15T14:19:37;100271.75;;;10.18;100.00
11672;BME280;5892;43.412;24.612;2022-11-15T14:22:08;100274.56;;;10.27;100.00
11672;BME280;5892;43.412;24.612;2022-11-15T14:24:37;100246.63;;;10.03;100.00
11672;BME280;5892;43.412;24.612;2022-11-15T14:27:25;100279.22;;;10.27;100.00
11672;BME280;5892;43.412;24.612;2022-11-15T14:29:54;100227.38;;;9.94;100.00
11672;BME280;5892;43.412;24.612;2022-11-15T14:32:23;100267.47;;;10.26;100.00
11672;BME280;5892;43.412;24.612;2022-11-15T14:34:54;100175.16;;;9.55;100.00
11672;BME280;5892;43.412;24.612;2022-11-15T14:37:23;100241.75;;;10.00;100.00
11672;BME280;5892;43.412;24.612;2022-11-15T14:39:51;100265.16;;;10.19;100.00
11672;BME280;5892;43.412;24.612;2022-11-15T14:45:13;100252.88;;;10.17;100.00
11672;BME280;5892;43.412;24.612;2022-11-15T14:47:40;100169.28;;;9.48;100.00
11672;BME280;5892;43.412;24.612;2022-11-15T14:50:12;100253.91;;;10.07;100.00
11672;BME280;5892;43.412;24.612;2022-11-15T14:52:39;100254.09;;;10.11;100.00
11672;BME280;5892;43.412;24.612;2022-11-15T14:55:15;100249.75;;;10.10;100.00